sensor_id;sensor_type;location;lat;lon;timestamp;pressure;altitude;pressure_sealevel;temperature;humidity
71105;BME280;58760;48.716;8.962;2023-04-05T00:00:51;96965.00;;;0.28;65.67
71105;BME280;58760;48.716;8.962;2023-04-05T00:03:18;96968.66;;;0.26;65.96
71105;BME280;58760;48.716;8.962;2023-04-05T00:05:44;96964.56;;;0.22;66.47
71105;BME280;58760;48.716;8.962;2023-04-05T00:08:10;96960.47;;;0.18;66.64
71105;BME280;58760;48.716;8.962;2023-04-05T00:10:48;96956.72;;;0.22;66.90
71105;BME280;58760;48.716;8.962;2023-04-05T00:13:14;96960.47;;;0.18;66.64
71105;BME280;58760;48.716;8.962;2023-04-05T00:15:39;96956.50;;;0.12;66.87
71105;BME280;58760;48.716;8.962;2023-04-05T00:18:05;96948.66;;;0.12;66.85
71105;BME280;58760;48.716;8.962;2023-04-05T00:20:30;96952.31;;;0.10;67.06
71105;BME280;58760;48.716;8.962;2023-04-05T00:22:56;96947.09;;;0.10;67.42
71105;BME280;58760;48.716;8.962;2023-04-05T00:25:21;96941.75;;;0.11;67.38
71105;BME280;58760;48.716;8.962;2023-04-05T00:27:46;96937.28;;;0.13;67.12
71105;BME280;58760;48.716;8.962;2023-04-05T00:30:12;96941.28;;;0.19;66.84
71105;BME280;58760;48.716;8.962;2023-04-05T00:32:46;96933.31;;;0.20;66.68
71105;BME280;58760;48.716;8.962;2023-04-05T00:35:12;96930.63;;;0.22;66.79
71105;BME280;58760;48.716;8.962;2023-04-05T00:37:37;96929.06;;;0.19;66.89
71105;BME280;58760;48.716;8.962;2023-04-05T00:40:03;96937.28;;;0.13;67.18
71105;BME280;58760;48.716;8.962;2023-04-05T00:42:29;96930.00;;;0.18;67.74
71105;BME280;58760;48.716;8.962;2023-04-05T00:44:54;96928.66;;;0.25;67.03
71105;BME280;58760;48.716;8.962;2023-04-05T00:47:19;96924.09;;;0.29;66.59
71105;BME280;58760;48.716;8.962;2023-04-05T00:49:45;96926.91;;;0.26;66.92
71105;BME280;58760;48.716;8.962;2023-04-05T00:52:10;96910.69;;;0.21;67.35
71105;BME280;58760;48.716;8.962;2023-04-05T00:54:37;96910.59;;;0.22;67.80
71105;BME280;58760;48.716;8.962;2023-04-05T00:57:03;96915.19;;;0.19;67.71
71105;BME280;58760;48.716;8.962;2023-04-05T00:59:31;96911.28;;;0.12;68.01
71105;BME280;58760;48.716;8.962;2023-04-05T01:04:54;96905.88;;;0.15;68.39
71105;BME280;58760;48.716;8.962;2023-04-05T01:07:30;96909.63;;;0.11;70.56
71105;BME280;58760;48.716;8.962;2023-04-05T01:10:02;96905.34;;;0.10;69.99
71105;BME280;58760;48.716;8.962;2023-04-05T01:12:31;96902.63;;;0.11;69.33
71105;BME280;58760;48.716;8.962;2023-04-05T01:14:58;96897.63;;;0.08;69.35
71105;BME280;58760;48.716;8.962;2023-04-05T01:17:25;96894.06;;;0.09;69.77
71105;BME280;58760;48.716;8.962;2023-04-05T01:20:04;96897.69;;;0.07;69.04
71105;BME280;58760;48.716;8.962;2023-04-05T01:31:07;96882.25;;;0.04;68.93
71105;BME280;58760;48.716;8.962;2023-04-05T01:33:43;96887.97;;;-0.04;69.00
71105;BME280;58760;48.716;8.962;2023-04-05T01:36:28;96878.41;;;-0.04;68.67
71105;BME280;58760;48.716;8.962;2023-04-05T01:38:56;96878.41;;;-0.04;68.51
71105;BME280;58760;48.716;8.962;2023-04-05T01:41:23;96883.81;;;-0.07;68.88
71105;BME280;58760;48.716;8.962;2023-04-05T01:43:48;96880.38;;;-0.07;68.57
71105;BME280;58760;48.716;8.962;2023-04-05T01:46:14;96882.78;;;-0.04;69.11
71105;BME280;58760;48.716;8.962;2023-04-05T01:48:39;96877.56;;;-0.04;70.41
71105;BME280;58760;48.716;8.962;2023-04-05T01:51:05;96872.97;;;-0.01;70.53
71105;BME280;58760;48.716;8.962;2023-04-05T01:53:30;96879.97;;;-0.01;70.64
71105;BME280;58760;48.716;8.962;2023-04-05T01:56:00;96873.47;;;-0.08;71.25
71105;BME280;58760;48.716;8.962;2023-04-05T01:58:26;96874.78;;;-0.15;71.53
71105;BME280;58760;48.716;8.962;2023-04-05T02:00:56;96867.81;;;-0.15;71.57
71105;BME280;58760;48.716;8.962;2023-04-05T02:03:22;96855.91;;;-0.19;71.23
71105;BME280;58760;48.716;8.962;2023-04-05T02:05:47;96858.91;;;-0.25;71.36
71105;BME280;58760;48.716;8.962;2023-04-05T02:08:13;96856.41;;;-0.26;71.40
71105;BME280;58760;48.716;8.962;2023-04-05T02:10:39;96861.50;;;-0.25;71.49
71105;BME280;58760;48.716;8.962;2023-04-05T02:13:05;96863.06;;;-0.22;70.93
71105;BME280;58760;48.716;8.962;2023-04-05T02:15:30;96857.03;;;-0.23;70.74
71105;BME280;58760;48.716;8.962;2023-04-05T02:17:57;96862.44;;;-0.26;70.98
71105;BME280;58760;48.716;8.962;2023-04-05T02:20:26;96860.59;;;-0.24;71.54
71105;BME280;58760;48.716;8.962;2023-04-05T02:22:52;96859.94;;;-0.27;71.93
71105;BME280;58760;48.716;8.962;2023-04-05T02:25:18;96847.09;;;-0.30;72.14
71105;BME280;58760;48.716;8.962;2023-04-05T02:27:43;96845.53;;;-0.33;72.42
71105;BME280;58760;48.716;8.962;2023-04-05T02:30:12;96853.56;;;-0.36;72.71
71105;BME280;58760;48.716;8.962;2023-04-05T02:32:40;96850.31;;;-0.39;73.20
71105;BME280;58760;48.716;8.962;2023-04-05T02:35:10;96851.13;;;-0.39;73.24
71105;BME280;58760;48.716;8.962;2023-04-05T02:37:37;96854.69;;;-0.40;73.38
71105;BME280;58760;48.716;8.962;2023-04-05T02:40:06;96853.13;;;-0.42;73.19
71105;BME280;58760;48.716;8.962;2023-04-05T02:42:35;96853.41;;;-0.47;72.87
71105;BME280;58760;48.716;8.962;2023-04-05T02:45:01;96854.84;;;-0.56;74.16
71105;BME280;58760;48.716;8.962;2023-04-05T02:47:26;96841.19;;;-0.73;74.75
71105;BME280;58760;48.716;8.962;2023-04-05T02:49:51;96846.13;;;-0.83;74.88
71105;BME280;58760;48.716;8.962;2023-04-05T02:52:17;96850.22;;;-0.79;74.74
71105;BME280;58760;48.716;8.962;2023-04-05T02:54:42;96857.00;;;-0.76;74.58
71105;BME280;58760;48.716;8.962;2023-04-05T02:57:09;96853.84;;;-0.81;74.06
71105;BME280;58760;48.716;8.962;2023-04-05T02:59:38;96857.78;;;-0.88;74.03
71105;BME280;58760;48.716;8.962;2023-04-05T03:02:04;96856.47;;;-0.95;73.88
71105;BME280;58760;48.716;8.962;2023-04-05T03:04:30;96849.88;;;-1.01;73.72
71105;BME280;58760;48.716;8.962;2023-04-05T03:07:02;96848.09;;;-1.00;73.87
71105;BME280;58760;48.716;8.962;2023-04-05T03:09:29;96850.81;;;-1.02;74.17
71105;BME280;58760;48.716;8.962;2023-04-05T03:12:03;96848.41;;;-1.05;74.16
71105;BME280;58760;48.716;8.962;2023-04-05T03:14:29;96852.84;;;-1.07;74.23
71105;BME280;58760;48.716;8.962;2023-04-05T03:16:55;96840.59;;;-1.05;74.44
71105;BME280;58760;48.716;8.962;2023-04-05T03:19:21;96837.53;;;-1.12;74.28
71105;BME280;58760;48.716;8.962;2023-04-05T03:21:49;96840.97;;;-1.11;74.24
71105;BME280;58760;48.716;8.962;2023-04-05T03:24:15;96841.97;;;-1.14;74.19
71105;BME280;58760;48.716;8.962;2023-04-05T03:26:47;96843.66;;;-1.13;74.25
71105;BME280;58760;48.716;8.962;2023-04-05T03:29:13;96843.75;;;-1.14;74.45
71105;BME280;58760;48.716;8.962;2023-04-05T03:31:38;96842.91;;;-1.15;74.41
71105;BME280;58760;48.716;8.962;2023-04-05T03:34:04;96842.53;;;-1.23;74.66
71105;BME280;58760;48.716;8.962;2023-04-05T03:36:29;96845.31;;;-1.26;75.05
71105;BME280;58760;48.716;8.962;2023-04-05T03:39:09;96832.88;;;-1.35;75.52
71105;BME280;58760;48.716;8.962;2023-04-05T03:41:35;96842.56;;;-1.37;75.85
71105;BME280;58760;48.716;8.962;2023-04-05T03:44:00;96850.09;;;-1.46;75.96
71105;BME280;58760;48.716;8.962;2023-04-05T03:46:25;96840.19;;;-1.55;76.57
71105;BME280;58760;48.716;8.962;2023-04-05T03:48:51;96842.25;;;-1.61;76.73
71105;BME280;58760;48.716;8.962;2023-04-05T03:51:16;96841.59;;;-1.64;77.11
71105;BME280;58760;48.716;8.962;2023-04-05T03:53:43;96844.94;;;-1.62;77.31
71105;BME280;58760;48.716;8.962;2023-04-05T03:56:08;96844.19;;;-1.64;77.51
71105;BME280;58760;48.716;8.962;2023-04-05T03:58:35;96842.63;;;-1.67;78.32
71105;BME280;58760;48.716;8.962;2023-04-05T04:01:00;96837.59;;;-1.70;78.67
71105;BME280;58760;48.716;8.962;2023-04-05T04:03:26;96844.56;;;-1.70;79.30
71105;BME280;58760;48.716;8.962;2023-04-05T04:05:53;96840.28;;;-1.71;79.71
71105;BME280;58760;48.716;8.962;2023-04-05T04:08:18;96837.13;;;-1.76;79.72
71105;BME280;58760;48.716;8.962;2023-04-05T04:10:44;96843.06;;;-1.74;80.49
71105;BME280;58760;48.716;8.962;2023-04-05T04:13:09;96837.19;;;-1.78;81.12
71105;BME280;58760;48.716;8.962;2023-04-05T04:15:34;96846.69;;;-1.77;81.16
71105;BME280;58760;48.716;8.962;2023-04-05T04:18:00;96843.16;;;-1.76;81.06
71105;BME280;58760;48.716;8.962;2023-04-05T04:20:25;96845.84;;;-1.77;80.62
71105;BME280;58760;48.716;8.962;2023-04-05T04:22:50;96836.47;;;-1.80;80.19
71105;BME280;58760;48.716;8.962;2023-04-05T04:25:18;96837.63;;;-1.85;79.90
71105;BME280;58760;48.716;8.962;2023-04-05T04:27:44;96829.94;;;-1.87;80.16
71105;BME280;58760;48.716;8.962;2023-04-05T04:30:12;96832.44;;;-1.85;80.47
71105;BME280;58760;48.716;8.962;2023-04-05T04:32:39;96831.88;;;-1.90;80.12
71105;BME280;58760;48.716;8.962;2023-04-05T04:35:25;96831.72;;;-1.87;80.29
71105;BME280;58760;48.716;8.962;2023-04-05T04:37:55;96830.19;;;-1.91;80.06
71105;BME280;58760;48.716;8.962;2023-04-05T04:40:31;96834.19;;;-2.00;79.86
71105;BME280;58760;48.716;8.962;2023-04-05T04:43:08;96829.00;;;-2.00;79.77
71105;BME280;58760;48.716;8.962;2023-04-05T04:45:46;96837.56;;;-2.14;79.18
71105;BME280;58760;48.716;8.962;2023-04-05T04:48:13;96834.13;;;-2.14;79.71
71105;BME280;58760;48.716;8.962;2023-04-05T04:50:43;96833.16;;;-2.12;79.90
71105;BME280;58760;48.716;8.962;2023-04-05T04:53:10;96830.44;;;-2.10;80.06
71105;BME280;58760;48.716;8.962;2023-04-05T04:55:36;96830.19;;;-2.05;80.24
71105;BME280;58760;48.716;8.962;2023-04-05T04:58:02;96837.53;;;-1.98;80.09
71105;BME280;58760;48.716;8.962;2023-04-05T05:00:34;96839.94;;;-1.95;79.75
71105;BME280;58760;48.716;8.962;2023-04-05T05:03:00;96837.34;;;-1.95;79.85
71105;BME280;58760;48.716;8.962;2023-04-05T05:05:26;96836.72;;;-1.98;79.72
71105;BME280;58760;48.716;8.962;2023-04-05T05:07:51;96849.13;;;-2.03;79.91
71105;BME280;58760;48.716;8.962;2023-04-05T05:10:18;96850.31;;;-2.09;80.22
71105;BME280;58760;48.716;8.962;2023-04-05T05:12:43;96846.88;;;-2.09;80.74
71105;BME280;58760;48.716;8.962;2023-04-05T05:15:10;96856.84;;;-2.02;80.90
71105;BME280;58760;48.716;8.962;2023-04-05T05:17:36;96854.13;;;-2.00;80.85
71105;BME280;58760;48.716;8.962;2023-04-05T05:20:03;96851.84;;;-1.91;81.21
71105;BME280;58760;48.716;8.962;2023-04-05T05:22:34;96857.16;;;-1.92;80.84
71105;BME280;58760;48.716;8.962;2023-04-05T05:25:00;96853.13;;;-1.98;81.08
71105;BME280;58760;48.716;8.962;2023-04-05T05:27:25;96850.44;;;-1.96;81.16
71105;BME280;58760;48.716;8.962;2023-04-05T05:29:52;96852.22;;;-1.97;81.27
71105;BME280;58760;48.716;8.962;2023-04-05T05:32:17;96853.78;;;-1.94;81.20
71105;BME280;58760;48.716;8.962;2023-04-05T05:34:43;96846.16;;;-1.97;80.81
71105;BME280;58760;48.716;8.962;2023-04-05T05:37:10;96850.63;;;-1.85;81.46
71105;BME280;58760;48.716;8.962;2023-04-05T05:39:36;96840.00;;;-1.81;82.00
71105;BME280;58760;48.716;8.962;2023-04-05T05:42:01;96840.38;;;-1.73;82.07
71105;BME280;58760;48.716;8.962;2023-04-05T05:44:28;96846.97;;;-1.67;81.77
71105;BME280;58760;48.716;8.962;2023-04-05T05:46:53;96842.25;;;-1.61;82.34
71105;BME280;58760;48.716;8.962;2023-04-05T05:49:19;96847.28;;;-1.58;82.01
71105;BME280;58760;48.716;8.962;2023-04-05T05:51:44;96844.94;;;-1.48;81.97
71105;BME280;58760;48.716;8.962;2023-04-05T05:54:10;96848.75;;;-1.39;82.07
71105;BME280;58760;48.716;8.962;2023-04-05T05:56:35;96846.19;;;-1.11;82.56
71105;BME280;58760;48.716;8.962;2023-04-05T05:59:01;96859.00;;;-1.08;82.20
71105;BME280;58760;48.716;8.962;2023-04-05T06:01:26;96846.34;;;-1.00;81.62
71105;BME280;58760;48.716;8.962;2023-04-05T06:03:53;96849.19;;;-0.90;81.18
71105;BME280;58760;48.716;8.962;2023-04-05T06:06:18;96845.47;;;-0.72;81.73
71105;BME280;58760;48.716;8.962;2023-04-05T06:08:45;96844.97;;;-0.65;81.01
71105;BME280;58760;48.716;8.962;2023-04-05T06:11:18;96846.75;;;-0.38;79.37
71105;BME280;58760;48.716;8.962;2023-04-05T06:13:44;96854.09;;;-0.31;78.22
71105;BME280;58760;48.716;8.962;2023-04-05T06:16:09;96840.78;;;-0.26;77.29
71105;BME280;58760;48.716;8.962;2023-04-05T06:18:35;96848.28;;;-0.22;76.85
71105;BME280;58760;48.716;8.962;2023-04-05T06:21:00;96846.47;;;-0.07;76.13
71105;BME280;58760;48.716;8.962;2023-04-05T06:23:25;96842.31;;;0.03;76.12
71105;BME280;58760;48.716;8.962;2023-04-05T06:25:51;96843.47;;;0.12;76.04
71105;BME280;58760;48.716;8.962;2023-04-05T06:28:16;96841.00;;;0.23;74.85
71105;BME280;58760;48.716;8.962;2023-04-05T06:30:42;96843.63;;;0.48;73.13
71105;BME280;58760;48.716;8.962;2023-04-05T06:33:07;96843.59;;;0.86;72.24
71105;BME280;58760;48.716;8.962;2023-04-05T06:35:32;96841.00;;;1.35;70.25
71105;BME280;58760;48.716;8.962;2023-04-05T06:37:58;96844.06;;;1.65;68.14
71105;BME280;58760;48.716;8.962;2023-04-05T06:40:23;96849.22;;;1.78;67.95
71105;BME280;58760;48.716;8.962;2023-04-05T06:42:49;96849.56;;;1.97;69.44
71105;BME280;58760;48.716;8.962;2023-04-05T06:45:14;96838.47;;;1.93;70.39
71105;BME280;58760;48.716;8.962;2023-04-05T06:47:41;96847.84;;;1.85;69.56
71105;BME280;58760;48.716;8.962;2023-04-05T06:50:07;96848.22;;;1.91;69.97
71105;BME280;58760;48.716;8.962;2023-04-05T06:52:33;96847.78;;;1.74;70.28
71105;BME280;58760;48.716;8.962;2023-04-05T06:54:59;96848.41;;;1.77;70.52
71105;BME280;58760;48.716;8.962;2023-04-05T06:57:24;96845.06;;;1.75;70.52
71105;BME280;58760;48.716;8.962;2023-04-05T06:59:50;96836.56;;;1.95;69.28
71105;BME280;58760;48.716;8.962;2023-04-05T07:02:16;96842.03;;;1.92;69.55
71105;BME280;58760;48.716;8.962;2023-04-05T07:04:41;96850.63;;;1.94;69.13
71105;BME280;58760;48.716;8.962;2023-04-05T07:07:07;96848.50;;;1.99;68.21
71105;BME280;58760;48.716;8.962;2023-04-05T07:09:34;96845.66;;;2.02;67.83
71105;BME280;58760;48.716;8.962;2023-04-05T07:12:01;96847.69;;;2.45;66.50
71105;BME280;58760;48.716;8.962;2023-04-05T07:14:30;96846.75;;;2.46;65.10
71105;BME280;58760;48.716;8.962;2023-04-05T07:16:56;96851.00;;;2.36;64.84
71105;BME280;58760;48.716;8.962;2023-04-05T07:19:22;96849.72;;;2.41;64.70
71105;BME280;58760;48.716;8.962;2023-04-05T07:21:47;96848.16;;;2.39;64.64
71105;BME280;58760;48.716;8.962;2023-04-05T07:24:13;96837.84;;;2.71;63.18
71105;BME280;58760;48.716;8.962;2023-04-05T07:26:38;96845.00;;;2.80;62.42
71105;BME280;58760;48.716;8.962;2023-04-05T07:29:04;96843.25;;;2.91;61.92
71105;BME280;58760;48.716;8.962;2023-04-05T07:31:30;96840.59;;;2.80;61.88
71105;BME280;58760;48.716;8.962;2023-04-05T07:33:56;96842.25;;;2.59;62.24
71105;BME280;58760;48.716;8.962;2023-04-05T07:36:22;96846.78;;;2.68;61.46
71105;BME280;58760;48.716;8.962;2023-04-05T07:38:48;96845.88;;;2.91;61.56
71105;BME280;58760;48.716;8.962;2023-04-05T07:41:13;96840.13;;;2.86;61.27
71105;BME280;58760;48.716;8.962;2023-04-05T07:43:41;96844.44;;;2.98;60.30
71105;BME280;58760;48.716;8.962;2023-04-05T07:46:06;96840.16;;;3.08;59.72
71105;BME280;58760;48.716;8.962;2023-04-05T07:48:32;96847.31;;;3.17;58.91
71105;BME280;58760;48.716;8.962;2023-04-05T07:51:04;96843.13;;;3.26;58.08
71105;BME280;58760;48.716;8.962;2023-04-05T07:53:30;96840.16;;;3.31;58.89
71105;BME280;58760;48.716;8.962;2023-04-05T07:55:55;96840.81;;;3.55;59.07
71105;BME280;58760;48.716;8.962;2023-04-05T07:58:22;96843.19;;;3.58;59.96
71105;BME280;58760;48.716;8.962;2023-04-05T08:00:48;96840.28;;;3.83;59.39
71105;BME280;58760;48.716;8.962;2023-04-05T08:03:13;96835.91;;;4.04;57.46
71105;BME280;58760;48.716;8.962;2023-04-05T08:05:38;96839.06;;;3.87;58.24
71105;BME280;58760;48.716;8.962;2023-04-05T08:08:04;96847.41;;;3.92;58.40
71105;BME280;58760;48.716;8.962;2023-04-05T08:10:29;96844.91;;;4.22;57.14
71105;BME280;58760;48.716;8.962;2023-04-05T08:12:55;96846.56;;;4.23;55.94
71105;BME280;58760;48.716;8.962;2023-04-05T08:15:20;96852.06;;;4.20;56.61
71105;BME280;58760;48.716;8.962;2023-04-05T08:17:46;96849.16;;;4.35;56.24
71105;BME280;58760;48.716;8.962;2023-04-05T08:20:11;96849.81;;;4.48;55.49
71105;BME280;58760;48.716;8.962;2023-04-05T08:22:37;96840.75;;;4.41;53.02
71105;BME280;58760;48.716;8.962;2023-04-05T08:25:02;96846.06;;;4.30;50.50
71105;BME280;58760;48.716;8.962;2023-04-05T08:27:27;96843.94;;;4.23;51.58
71105;BME280;58760;48.716;8.962;2023-04-05T08:29:53;96845.53;;;4.36;50.57
71105;BME280;58760;48.716;8.962;2023-04-05T08:32:18;96842.44;;;4.42;50.08
71105;BME280;58760;48.716;8.962;2023-04-05T08:34:43;96834.81;;;4.39;49.77
71105;BME280;58760;48.716;8.962;2023-04-05T08:37:09;96842.22;;;4.34;50.27
71105;BME280;58760;48.716;8.962;2023-04-05T08:39:34;96842.91;;;4.36;50.11
71105;BME280;58760;48.716;8.962;2023-04-05T08:42:08;96845.72;;;4.23;51.12
71105;BME280;58760;48.716;8.962;2023-04-05T08:44:36;96845.06;;;4.42;48.32
71105;BME280;58760;48.716;8.962;2023-04-05T08:47:02;96847.34;;;4.56;47.63
71105;BME280;58760;48.716;8.962;2023-04-05T08:49:27;96850.31;;;4.83;46.48
71105;BME280;58760;48.716;8.962;2023-04-05T08:51:53;96850.88;;;4.87;45.78
71105;BME280;58760;48.716;8.962;2023-04-05T08:54:19;96835.72;;;5.00;43.98
71105;BME280;58760;48.716;8.962;2023-04-05T08:56:46;96847.34;;;4.97;43.93
71105;BME280;58760;48.716;8.962;2023-04-05T08:59:15;96846.81;;;5.03;43.08
71105;BME280;58760;48.716;8.962;2023-04-05T09:01:43;96837.69;;;5.07;43.37
71105;BME280;58760;48.716;8.962;2023-04-05T09:04:21;96842.72;;;5.10;43.96
71105;BME280;58760;48.716;8.962;2023-04-05T09:06:49;96837.25;;;5.02;45.35
71105;BME280;58760;48.716;8.962;2023-04-05T09:09:15;96841.44;;;5.45;47.14
71105;BME280;58760;48.716;8.962;2023-04-05T09:11:42;96846.44;;;5.48;46.12
71105;BME280;58760;48.716;8.962;2023-04-05T09:14:08;96837.47;;;5.60;45.25
71105;BME280;58760;48.716;8.962;2023-04-05T09:16:38;96834.97;;;5.58;46.54
71105;BME280;58760;48.716;8.962;2023-04-05T09:19:04;96842.59;;;5.61;44.84
71105;BME280;58760;48.716;8.962;2023-04-05T09:29:43;96845.16;;;5.33;42.94
71105;BME280;58760;48.716;8.962;2023-04-05T09:32:10;96843.13;;;5.15;43.24
71105;BME280;58760;48.716;8.962;2023-04-05T09:34:35;96834.91;;;5.30;42.99
71105;BME280;58760;48.716;8.962;2023-04-05T09:37:12;96842.75;;;5.69;45.66
71105;BME280;58760;48.716;8.962;2023-04-05T09:39:41;96835.91;;;5.97;45.49
71105;BME280;58760;48.716;8.962;2023-04-05T09:42:14;96837.16;;;6.12;46.81
71105;BME280;58760;48.716;8.962;2023-04-05T09:44:59;96845.06;;;6.12;43.19
71105;BME280;58760;48.716;8.962;2023-04-05T09:47:30;96831.06;;;6.21;43.67
71105;BME280;58760;48.716;8.962;2023-04-05T09:50:00;96834.41;;;6.43;44.57
71105;BME280;58760;48.716;8.962;2023-04-05T09:52:30;96835.94;;;6.16;41.16
71105;BME280;58760;48.716;8.962;2023-04-05T09:55:01;96833.69;;;6.12;41.19
71105;BME280;58760;48.716;8.962;2023-04-05T09:57:28;96828.88;;;6.07;42.81
71105;BME280;58760;48.716;8.962;2023-04-05T09:59:57;96834.25;;;6.35;43.92
71105;BME280;58760;48.716;8.962;2023-04-05T10:02:23;96826.22;;;6.07;41.32
71105;BME280;58760;48.716;8.962;2023-04-05T10:04:49;96830.78;;;5.96;40.79
71105;BME280;58760;48.716;8.962;2023-04-05T10:07:17;96818.44;;;5.96;41.48
71105;BME280;58760;48.716;8.962;2023-04-05T10:09:45;96814.56;;;6.10;42.12
71105;BME280;58760;48.716;8.962;2023-04-05T10:12:23;96815.69;;;6.26;41.24
71105;BME280;58760;48.716;8.962;2023-04-05T10:14:49;96819.28;;;6.35;43.29
71105;BME280;58760;48.716;8.962;2023-04-05T10:20:19;96807.88;;;6.44;42.16
71105;BME280;58760;48.716;8.962;2023-04-05T10:30:58;96803.78;;;6.88;43.13
71105;BME280;58760;48.716;8.962;2023-04-05T10:33:30;96803.78;;;6.88;40.92
71105;BME280;58760;48.716;8.962;2023-04-05T10:39:12;96800.31;;;6.88;43.40
71105;BME280;58760;48.716;8.962;2023-04-05T10:41:46;96793.34;;;6.96;43.45
71105;BME280;58760;48.716;8.962;2023-04-05T10:44:11;96799.41;;;7.06;42.96
71105;BME280;58760;48.716;8.962;2023-04-05T10:46:39;96789.53;;;7.18;43.04
71105;BME280;58760;48.716;8.962;2023-04-05T10:49:19;96788.59;;;7.36;41.28
71105;BME280;58760;48.716;8.962;2023-04-05T10:51:47;96790.69;;;7.60;40.78
71105;BME280;58760;48.716;8.962;2023-04-05T10:54:12;96788.13;;;7.51;39.34
71105;BME280;58760;48.716;8.962;2023-04-05T10:56:41;96789.47;;;7.55;43.81
71105;BME280;58760;48.716;8.962;2023-04-05T10:59:08;96785.13;;;7.81;41.38
71105;BME280;58760;48.716;8.962;2023-04-05T11:01:34;96786.00;;;7.99;42.13
71105;BME280;58760;48.716;8.962;2023-04-05T11:04:16;96786.88;;;7.72;38.72
71105;BME280;58760;48.716;8.962;2023-04-05T11:06:42;96783.28;;;8.09;40.92
71105;BME280;58760;48.716;8.962;2023-04-05T11:09:15;96780.03;;;8.32;41.96
71105;BME280;58760;48.716;8.962;2023-04-05T11:11:48;96784.41;;;8.42;42.27
71105;BME280;58760;48.716;8.962;2023-04-05T11:14:34;96777.88;;;8.54;39.20
71105;BME280;58760;48.716;8.962;2023-04-05T11:17:00;96774.28;;;8.37;39.42
71105;BME280;58760;48.716;8.962;2023-04-05T11:22:07;96769.53;;;8.40;38.97
71105;BME280;58760;48.716;8.962;2023-04-05T11:27:26;96764.66;;;8.54;40.58
71105;BME280;58760;48.716;8.962;2023-04-05T11:29:53;96767.53;;;8.43;39.75
71105;BME280;58760;48.716;8.962;2023-04-05T11:32:19;96762.09;;;8.87;41.24
71105;BME280;58760;48.716;8.962;2023-04-05T11:34:57;96762.38;;;9.10;38.72
71105;BME280;58760;48.716;8.962;2023-04-05T11:40:35;96752.44;;;9.46;37.19
71105;BME280;58760;48.716;8.962;2023-04-05T11:43:08;96744.72;;;9.77;35.46
71105;BME280;58760;48.716;8.962;2023-04-05T11:45:36;96747.06;;;9.88;37.01
71105;BME280;58760;48.716;8.962;2023-04-05T11:48:07;96748.22;;;10.02;33.13
71105;BME280;58760;48.716;8.962;2023-04-05T11:50:34;96751.88;;;9.84;32.71
71105;BME280;58760;48.716;8.962;2023-04-05T11:53:17;96741.06;;;9.70;32.76
71105;BME280;58760;48.716;8.962;2023-04-05T11:55:48;96752.03;;;9.99;35.24
71105;BME280;58760;48.716;8.962;2023-04-05T11:58:25;96747.78;;;11.26;33.54
71105;BME280;58760;48.716;8.962;2023-04-05T12:00:57;96744.84;;;12.36;31.96
71105;BME280;58760;48.716;8.962;2023-04-05T12:03:26;96725.72;;;13.36;29.33
71105;BME280;58760;48.716;8.962;2023-04-05T12:05:55;96729.75;;;13.47;27.25
71105;BME280;58760;48.716;8.962;2023-04-05T12:08:21;96723.19;;;14.21;26.05
71105;BME280;58760;48.716;8.962;2023-04-05T12:10:56;96720.84;;;13.90;27.37
71105;BME280;58760;48.716;8.962;2023-04-05T12:13:30;96713.16;;;14.65;26.55
71105;BME280;58760;48.716;8.962;2023-04-05T12:15:57;96702.28;;;15.29;26.09
71105;BME280;58760;48.716;8.962;2023-04-05T12:18:28;96707.88;;;13.87;26.22
71105;BME280;58760;48.716;8.962;2023-04-05T12:20:54;96699.34;;;14.90;26.93
71105;BME280;58760;48.716;8.962;2023-04-05T12:23:21;96703.06;;;15.23;26.17
71105;BME280;58760;48.716;8.962;2023-04-05T12:25:47;96688.47;;;15.60;25.21
71105;BME280;58760;48.716;8.962;2023-04-05T12:28:13;96694.72;;;15.39;26.81
71105;BME280;58760;48.716;8.962;2023-04-05T12:30:52;96694.50;;;15.34;26.84
71105;BME280;58760;48.716;8.962;2023-04-05T12:33:31;96689.75;;;15.84;26.69
71105;BME280;58760;48.716;8.962;2023-04-05T12:36:04;96688.63;;;16.45;25.47
71105;BME280;58760;48.716;8.962;2023-04-05T12:38:29;96689.00;;;16.22;25.72
71105;BME280;58760;48.716;8.962;2023-04-05T12:40:59;96682.44;;;16.25;24.92
71105;BME280;58760;48.716;8.962;2023-04-05T12:43:25;96696.03;;;16.30;24.58
71105;BME280;58760;48.716;8.962;2023-04-05T12:45:53;96679.19;;;16.76;25.59
71105;BME280;58760;48.716;8.962;2023-04-05T12:48:22;96681.97;;;17.20;23.00
71105;BME280;58760;48.716;8.962;2023-04-05T12:50:50;96669.88;;;16.85;24.99
71105;BME280;58760;48.716;8.962;2023-04-05T12:53:23;96668.38;;;18.42;22.44
71105;BME280;58760;48.716;8.962;2023-04-05T12:55:53;96672.16;;;16.74;23.33
71105;BME280;58760;48.716;8.962;2023-04-05T12:58:20;96668.75;;;18.20;24.56
71105;BME280;58760;48.716;8.962;2023-04-05T13:00:45;96655.59;;;18.37;23.15
71105;BME280;58760;48.716;8.962;2023-04-05T13:03:18;96657.91;;;19.62;23.34
71105;BME280;58760;48.716;8.962;2023-04-05T13:05:46;96650.28;;;19.05;22.56
71105;BME280;58760;48.716;8.962;2023-04-05T13:08:12;96650.97;;;18.75;22.46
71105;BME280;58760;48.716;8.962;2023-04-05T13:10:38;96654.75;;;19.29;22.80
71105;BME280;58760;48.716;8.962;2023-04-05T13:13:03;96645.50;;;19.91;21.42
71105;BME280;58760;48.716;8.962;2023-04-05T13:15:29;96644.00;;;18.68;21.64
71105;BME280;58760;48.716;8.962;2023-04-05T13:17:54;96645.28;;;19.26;21.30
71105;BME280;58760;48.716;8.962;2023-04-05T13:20:20;96644.19;;;20.12;20.95
71105;BME280;58760;48.716;8.962;2023-04-05T13:22:46;96650.00;;;19.31;20.20
71105;BME280;58760;48.716;8.962;2023-04-05T13:25:12;96640.66;;;18.72;21.32
71105;BME280;58760;48.716;8.962;2023-04-05T13:27:38;96638.56;;;18.74;21.14
71105;BME280;58760;48.716;8.962;2023-04-05T13:30:04;96641.13;;;19.06;20.56
71105;BME280;58760;48.716;8.962;2023-04-05T13:32:29;96634.06;;;19.29;20.63
71105;BME280;58760;48.716;8.962;2023-04-05T13:34:55;96633.44;;;19.94;20.12
71105;BME280;58760;48.716;8.962;2023-04-05T13:37:20;96639.75;;;19.88;19.68
71105;BME280;58760;48.716;8.962;2023-04-05T13:39:45;96630.25;;;20.45;19.77
71105;BME280;58760;48.716;8.962;2023-04-05T13:42:11;96613.69;;;22.02;17.86
71105;BME280;58760;48.716;8.962;2023-04-05T13:44:36;96610.03;;;22.08;16.96
71105;BME280;58760;48.716;8.962;2023-04-05T13:47:02;96618.84;;;21.75;18.11
71105;BME280;58760;48.716;8.962;2023-04-05T13:49:28;96615.69;;;21.04;18.78